Nearby METAR Reports

 

KAVP - Avoca/Wilkes B., Pennsylvania, USA
Distance from station: NE 13mi, 20km
Updated: Tue, 24-May-2022 11:54am PDT
Overcast
Overcast
 Wind from S
Wind: S 3 mph , 6 km/h
Temperature: 64°F , 18°C
Dew Point: 48°F , 9°C
Humidity: 56%
Barometer: 30.28 inHg , 1025.4 hPa
Clouds: Overcast
Visibility: 10 miles , 16 km
Cloud details: Mostly Cloudy 3900 ft
Overcast 4900 ft
2022/05/24 18:54 KAVP 241854Z 19003KT 10SM BKN039 OVC049 18/09 A3028 RMK AO2 SLP250 T01830094
KMPO - Mt. Pocono, Pennsylvania, USA
Distance from station: ESE 28mi, 45km
Updated: Tue, 24-May-2022 11:53am PDT
Overcast
Overcast
 Wind from SSE
Wind: SSE 9 mph , 15 km/h
Temperature: 57°F , 14°C
Dew Point: 46°F , 8°C
Humidity: 67%
Barometer: 30.30 inHg , 1026.1 hPa
Clouds: Overcast
Visibility: 10 miles , 16 km
Cloud details: Few Clouds 2300 ft
Overcast 2900 ft
2022/05/24 18:53 KMPO 241853Z AUTO 16008KT 10SM FEW023 OVC029 14/08 A3030 RMK AO2 SLP261 T01390083
 
KABE - Allentown, Pennsylvania, USA
Distance from station: SSE 46mi, 74km
Updated: Tue, 24-May-2022 11:51am PDT
Overcast
Overcast
 Wind from E
Wind: E 9 mph , 15 km/h
Temperature: 66°F , 19°C
Dew Point: 46°F , 8°C
Humidity: 49%
Barometer: 30.28 inHg , 1025.4 hPa
Clouds: Overcast
Visibility: 10 miles , 16 km
Cloud details: Overcast 4600 ft
2022/05/24 18:51 KABE 241851Z 10008KT 10SM OVC046 19/08 A3028 RMK AO2 SLP254 T01890083
KXLL - Allentown Queen, Pennsylvania, USA
Distance from station: SSE 50mi, 81km
Updated: Tue, 24-May-2022 11:55am PDT
Mostly Cloudy
Mostly Cloudy
 Wind from ENE
Wind: ENE 3 mph , 6 km/h
Temperature: 68°F , 20°C
Dew Point: 46°F , 8°C
Humidity: 46%
Barometer: 30.29 inHg , 1025.7 hPa
Clouds: Mostly Cloudy
Visibility: 10 miles , 16 km
Cloud details: Partly Cloudy 4700 ft
Mostly Cloudy 6000 ft
Mostly Cloudy 8000 ft
2022/05/24 18:55 KXLL 241855Z AUTO 07003KT 10SM SCT047 BKN060 BKN080 20/08 A3029 RMK AO2
 
KIPT - Williamsport, Pennsylvania, USA
Distance from station: W 52mi, 84km
Updated: Tue, 24-May-2022 11:54am PDT
Overcast
Overcast
 Wind from varies
Wind: varies 5 mph , 7 km/h
Temperature: 66°F , 19°C
Dew Point: 48°F , 9°C
Humidity: 52%
Barometer: 30.25 inHg , 1024.4 hPa
Clouds: Overcast
Visibility: 10 miles , 16 km
Cloud details: Overcast 4600 ft
2022/05/24 18:54 KIPT 241854Z VRB04KT 10SM OVC046 19/09 A3025 RMK AO2 SLP243 T01890094
KSEG - Selinsgrove, Pennsylvania, USA
Distance from station: WSW 57mi, 92km
Updated: Tue, 24-May-2022 11:53am PDT
Overcast
Overcast
 Wind from S
Wind: S 7 mph , 11 km/h
Temperature: 64°F , 18°C
Dew Point: 54°F , 12°C
Humidity: 68%
Barometer: 30.27 inHg , 1025.1 hPa
Clouds: Overcast
Visibility: 10 miles , 16 km
Cloud details: Overcast 3600 ft
2022/05/24 18:53 KSEG 241853Z AUTO 17006KT 10SM OVC036 18/12 A3027 RMK AO2 SLP248 T01780117
 
KRDG - Reading, Pennsylvania, USA
Distance from station: S 59mi, 95km
Updated: Tue, 24-May-2022 11:54am PDT
Overcast
Overcast
 Wind from ESE
Wind: ESE 10 mph , 17 km/h
Temperature: 66°F , 19°C
Dew Point: 48°F , 9°C
Humidity: 52%
Barometer: 30.26 inHg , 1024.7 hPa
Clouds: Overcast
Visibility: 9 miles , 14 km
Cloud details: Overcast 4400 ft
2022/05/24 18:54 KRDG 241854Z 12009KT 9SM OVC044 19/09 A3026 RMK AO2 SLP249 T01940094 $
KUKT - Quakertown Arp, Pennsylvania, USA
Distance from station: SSE 61mi, 98km
Updated: Tue, 24-May-2022 11:55am PDT
Mostly Cloudy
Mostly Cloudy
 Wind from E
Wind: E 9 mph , 15 km/h
Temperature: 66°F , 19°C
Dew Point: 48°F , 9°C
Humidity: 52%
Barometer: 30.29 inHg , 1025.7 hPa
Clouds: Mostly Cloudy
Visibility: 10 miles , 16 km
Cloud details: Mostly Cloudy 4700 ft
Mostly Cloudy 7500 ft
2022/05/24 18:55 KUKT 241855Z AUTO 09008KT 10SM BKN047 BKN075 19/09 A3029 RMK A01
 
K12N - Andover, New Jersey, USA
Distance from station: ESE 63mi, 101km
Updated: Tue, 24-May-2022 11:54am PDT

 Wind from varies
Wind: varies 6 mph , 9 km/h
Temperature: 66°F , 19°C
Dew Point: 46°F , 8°C
Humidity: 49%
Barometer: 30.30 inHg , 1026.1 hPa
2022/05/24 18:54 K12N 241854Z AUTO VRB05KT 19/08 A3030 RMK AO1 SLP256 T01940078
KMUI - Muir Aaf/Indiant, Pennsylvania, USA
Distance from station: SSW 65mi, 105km
Updated: Tue, 24-May-2022 11:56am PDT
Overcast
Overcast
 Wind from SSE
Wind: SSE 3 mph , 6 km/h
Temperature: 63°F , 17°C
Dew Point: 52°F , 11°C
Humidity: 68%
Barometer: 30.25 inHg , 1024.4 hPa
Clouds: Overcast
Visibility: 10 miles , 16 km
Cloud details: Few Clouds 2100 ft
Mostly Cloudy 3000 ft
Overcast 3700 ft
2022/05/24 18:56 KMUI 241856Z 16003KT 10SM FEW021 BKN030 OVC037 17/11 A3025 RMK AO2A RAB21E46 SLP246 P0000 T01670110
 
KFWN - Sussex, New Jersey, USA
Distance from station: E 66mi, 107km
Updated: Tue, 24-May-2022 11:53am PDT
Overcast
Overcast
 Wind from SE
Wind: SE 7 mph , 11 km/h
Temperature: 66°F , 19°C
Dew Point: 45°F , 7°C
Humidity: 46%
Barometer: 30.30 inHg , 1026.1 hPa
Clouds: Overcast
Visibility: 10 miles , 16 km
Cloud details: Few Clouds 5000 ft
Overcast 8000 ft
2022/05/24 18:53 KFWN 241853Z AUTO 14006KT 10SM FEW050 OVC080 19/07 A3030 RMK AO2 SLP260 T01890072
KMSV - Monticello, New York, USA
Distance from station: ENE 67mi, 108km
Updated: Tue, 24-May-2022 11:56am PDT
Overcast
Overcast
 Wind from S
Wind: S 9 mph , 15 km/h
Temperature: 63°F , 17°C
Dew Point: 48°F , 9°C
Humidity: 59%
Barometer: 30.30 inHg , 1026.1 hPa
Clouds: Overcast
Visibility: 10 miles , 16 km
Cloud details: Overcast 3900 ft
2022/05/24 18:56 KMSV 241856Z AUTO 17008KT 10SM OVC039 17/09 A3030 RMK AO2 SLP262 T01720089
 
KBGM - Binghamton, New York, USA
Distance from station: N 69mi, 111km
Updated: Tue, 24-May-2022 11:53am PDT
Overcast
Overcast
 Wind from SSW
Wind: SSW 9 mph , 15 km/h
Temperature: 61°F , 16°C
Dew Point: 48°F , 9°C
Humidity: 63%
Barometer: 30.26 inHg , 1024.7 hPa
Clouds: Overcast
Visibility: 10 miles , 16 km
Cloud details: Partly Cloudy 3400 ft
Overcast 5500 ft
2022/05/24 18:53 KBGM 241853Z 20008KT 10SM SCT034 OVC055 16/09 A3026 RMK AO2 SLP250 T01610089
KPTW - Pottstown, Pennsylvania, USA
Distance from station: SSE 71mi, 114km
Updated: Tue, 24-May-2022 11:54am PDT
Overcast
Overcast
 Wind from varies
Wind: varies 5 mph , 7 km/h
Temperature: 66°F , 19°C
Dew Point: 48°F , 9°C
Humidity: 52%
Barometer: 30.28 inHg , 1025.4 hPa
Clouds: Overcast
Visibility: 10 miles , 16 km
Cloud details: Few Clouds 4700 ft
Overcast 6500 ft
2022/05/24 18:54 KPTW 241854Z AUTO VRB04KT 10SM FEW047 OVC065 19/09 A3028 RMK AO2 SLP251 T01940089 $
 
KDYL - Doylestown, Pennsylvania, USA
Distance from station: SE 74mi, 119km
Updated: Tue, 24-May-2022 11:54am PDT
Overcast
Overcast
 Wind from varies
Wind: varies 5 mph , 7 km/h
Temperature: 66°F , 19°C
Dew Point: 45°F , 7°C
Humidity: 46%
Barometer: 30.28 inHg , 1025.4 hPa
Clouds: Overcast
Visibility: 10 miles , 16 km
Cloud details: Partly Cloudy 4500 ft
Overcast 6500 ft
2022/05/24 18:54 KDYL 241854Z AUTO VRB04KT 10SM SCT045 OVC065 19/07 A3028 RMK AO2 SLP253 T01890072
KSMQ - Somerville, New Jersey, USA
Distance from station: ESE 77mi, 124km
Updated: Tue, 24-May-2022 11:53am PDT
Overcast
Overcast
 Wind from ESE
Wind: ESE 9 mph , 15 km/h
Temperature: 66°F , 19°C
Dew Point: 46°F , 8°C
Humidity: 49%
Barometer: 30.29 inHg , 1025.7 hPa
Clouds: Overcast
Visibility: 10 miles , 16 km
Cloud details: Overcast 8500 ft
2022/05/24 18:53 KSMQ 241853Z AUTO 12008KT 10SM OVC085 19/08 A3029 RMK AO2 SLP256 T01890078
 
KLNS - Lancaster, Pennsylvania, USA
Distance from station: SSW 79mi, 127km
Updated: Tue, 24-May-2022 11:53am PDT
Overcast
Overcast
 Wind from SE
Wind: SE 9 mph , 15 km/h
Temperature: 64°F , 18°C
Dew Point: 52°F , 11°C
Humidity: 64%
Barometer: 30.26 inHg , 1024.7 hPa
Clouds: Overcast
Visibility: 10 miles , 16 km
Cloud details: Overcast 3800 ft
2022/05/24 18:53 KLNS 241853Z 14008KT 10SM OVC038 18/11 A3026 RMK AO2 SLP246 T01830111
KELM - Elmira, New York, USA
Distance from station: NW 82mi, 132km
Updated: Tue, 24-May-2022 11:53am PDT
Overcast
Overcast
 Wind from S
Wind: S 9 mph , 15 km/h
Temperature: 66°F , 19°C
Dew Point: 50°F , 10°C
Humidity: 56%
Barometer: 30.24 inHg , 1024 hPa
Clouds: Overcast
Visibility: 10 miles , 16 km
Cloud details: Mostly Cloudy 4400 ft
Overcast 6000 ft
2022/05/24 18:53 KELM 241853Z 17008KT 10SM BKN044 OVC060 19/10 A3024 RMK AO2 SLP242 T01940100
 
KLOM - Philly Wings F, Pennsylvania, USA
Distance from station: SSE 82mi, 132km
Updated: Tue, 24-May-2022 11:55am PDT
Overcast
Overcast
 Wind from ESE
Wind: ESE 12 mph , 19 km/h, Gust: 18 mph , 30 km/h
Temperature: 68°F , 20°C
Dew Point: 50°F , 10°C
Humidity: 53%
Barometer: 30.28 inHg , 1025.4 hPa
Clouds: Overcast
Visibility: 10 miles , 16 km
Cloud details: Partly Cloudy 4700 ft
Overcast 7000 ft
2022/05/24 18:55 KLOM 241855Z AUTO 11010G16KT 070V130 10SM SCT047 OVC070 20/10 A3028 RMK AO2 T02020104
KMMU - Morristown Muni, New Jersey, USA
Distance from station: ESE 83mi, 134km
Updated: Tue, 24-May-2022 11:45am PDT
Overcast
Overcast
 Wind from S
Wind: S 7 mph , 11 km/h
Temperature: 64°F , 18°C
Dew Point: 48°F , 9°C
Humidity: 56%
Barometer: 30.31 inHg , 1026.4 hPa
Clouds: Overcast
Visibility: 10 miles , 16 km
Cloud details: Overcast 4900 ft
2022/05/24 18:45 KMMU 241845Z 18006KT 10SM OVC049 18/09 A3031

Metar display script from Saratoga-Weather.org